Cypremort Point, Louisiana
Current Conditions -  °F | °C
As of 4:35 AM on Tuesday 27 Jan 2015 (Local Time) from KPTN Reporting Station
Clear Clear  
Wind Chill: 45°   Ceiling: Unl
Heat Index: 48°   Visibility: 10mi
Dew Point: 45°   Wind: 8mph
Humidity: 87%   Direction: 260°W
Pressure: 30.09"   Gusts: NA
Location:  29.6388°N, 91.5181°W
Report Text: KPTN 271035Z AUTO 26007KT 10SM CLR 09/07 A3009 RMK AO1
Loading
Personal Weather Stations






























Interactive Weather Map New forecast layout! Learn more

10-Day Weather Forecast

Advertisements
Track Severe Weather on mobile